Time;durP1;ratioP1;P1;durP2;ratioP2;P2;SDS_P1;SDS_P2;PMS_P1;PMS_P2;Temp;Humidity;BMP_temperature;BMP_pressure;BME280_temperature;BME280_humidity;BME280_pressure;Samples;Min_cycle;Max_cycle;Signal;HPM_P1;HPM_P2
2023/10/25 00:00:21;;;;;;;7.97;4.50;;;;;;;8.52;100.00;100082.91;5014070;28;20336;-72
2023/10/25 00:02:48;;;;;;;9.35;3.80;;;;;;;8.50;100.00;100077.72;5022896;28;20033;-72
2023/10/25 00:05:16;;;;;;;15.75;4.35;;;;;;;8.48;100.00;100081.31;5016497;28;20135;-72
2023/10/25 00:07:43;;;;;;;13.55;4.20;;;;;;;8.46;100.00;100085.72;5010987;28;20134;-72
2023/10/25 00:10:10;;;;;;;11.27;4.15;;;;;;;8.45;100.00;100082.22;5025397;28;20060;-71
2023/10/25 00:12:37;;;;;;;10.52;4.00;;;;;;;8.43;100.00;100080.56;5018510;28;20133;-71
2023/10/25 00:15:06;;;;;;;10.52;4.38;;;;;;;8.40;100.00;100079.75;5035670;28;20045;-71
2023/10/25 00:17:33;;;;;;;9.88;4.40;;;;;;;8.36;100.00;100077.28;5026528;28;20057;-71
2023/10/25 00:20:00;;;;;;;11.57;4.70;;;;;;;8.32;100.00;100068.63;5012400;28;20418;-72
2023/10/25 00:22:27;;;;;;;7.82;4.55;;;;;;;8.31;100.00;100085.31;5008490;28;20050;-72
2023/10/25 00:24:54;;;;;;;11.13;4.43;;;;;;;8.28;100.00;100071.41;5022530;28;20564;-72
2023/10/25 00:27:21;;;;;;;9.88;4.30;;;;;;;8.27;100.00;100072.31;5029863;28;20633;-72
2023/10/25 00:29:48;;;;;;;11.00;4.70;;;;;;;8.25;100.00;100077.63;5022627;28;20050;-72
2023/10/25 00:32:15;;;;;;;10.27;4.45;;;;;;;8.23;100.00;100074.19;5006255;28;20125;-72
2023/10/25 00:34:42;;;;;;;11.13;5.15;;;;;;;8.19;100.00;100073.44;5025965;28;20158;-72
2023/10/25 00:37:09;;;;;;;11.15;4.93;;;;;;;8.15;100.00;100071.81;5029914;28;20053;-72
2023/10/25 00:39:36;;;;;;;7.85;4.45;;;;;;;8.14;100.00;100077.13;5025393;28;20116;-72
2023/10/25 00:42:04;;;;;;;8.82;4.90;;;;;;;8.12;100.00;100077.19;5023661;28;20058;-72
2023/10/25 00:44:32;;;;;;;9.65;4.80;;;;;;;8.08;100.00;100071.19;5018050;28;20587;-72
2023/10/25 00:47:01;;;;;;;8.70;4.72;;;;;;;8.06;100.00;100073.00;5037727;28;20053;-71
2023/10/25 00:49:28;;;;;;;9.68;4.97;;;;;;;8.05;100.00;100067.78;5043235;28;20519;-72
2023/10/25 00:51:56;;;;;;;10.30;4.88;;;;;;;8.01;100.00;100066.16;5007203;28;20056;-71
2023/10/25 00:54:24;;;;;;;8.43;4.43;;;;;;;7.98;100.00;100072.38;5026220;28;20658;-71
2023/10/25 00:56:55;;;;;;;9.05;4.55;;;;;;;7.97;100.00;100077.66;5025467;28;20116;-72
2023/10/25 00:59:23;;;;;;;8.32;4.53;;;;;;;7.95;100.00;100072.47;5025535;28;20061;-71
2023/10/25 01:01:50;;;;;;;8.93;4.70;;;;;;;7.94;100.00;100078.63;5012664;28;20449;-71
2023/10/25 01:04:18;;;;;;;9.95;4.72;;;;;;;7.92;100.00;100076.06;5026160;28;20064;-71
2023/10/25 01:06:45;;;;;;;9.45;4.68;;;;;;;7.89;100.00;100075.28;5024247;28;20057;-77
2023/10/25 01:09:12;;;;;;;9.60;5.05;;;;;;;7.86;100.00;100076.22;5010186;28;20092;-72
2023/10/25 01:11:41;;;;;;;11.20;4.90;;;;;;;7.84;100.00;100069.31;5025044;28;20060;-72
2023/10/25 01:14:08;;;;;;;9.23;4.63;;;;;;;7.84;100.00;100072.78;5011212;28;20042;-71
2023/10/25 01:16:35;;;;;;;9.57;4.63;;;;;;;7.82;100.00;100066.75;5022462;28;20046;-71
2023/10/25 01:19:03;;;;;;;9.63;5.00;;;;;;;7.81;100.00;100062.41;5023056;28;20046;-72
2023/10/25 01:21:31;;;;;;;11.00;4.85;;;;;;;7.80;100.00;100067.69;5006554;28;20418;-71
2023/10/25 01:23:58;;;;;;;8.32;4.80;;;;;;;7.78;100.00;100059.88;5012634;28;20077;-71
2023/10/25 01:26:25;;;;;;;9.02;4.55;;;;;;;7.76;100.00;100059.06;5009867;28;20129;-71
2023/10/25 01:28:52;;;;;;;10.27;5.00;;;;;;;7.76;100.00;100059.06;5017048;28;20172;-71
2023/10/25 01:31:20;;;;;;;13.02;4.70;;;;;;;7.74;100.00;100051.25;5025970;28;20053;-71
2023/10/25 01:33:51;;;;;;;11.52;4.82;;;;;;;7.74;100.00;100048.63;5019844;28;20037;-71
2023/10/25 01:36:18;;;;;;;11.40;4.85;;;;;;;7.73;100.00;100038.19;5013438;28;20119;-71
2023/10/25 01:38:45;;;;;;;9.27;5.25;;;;;;;7.74;100.00;100051.25;5033471;28;20045;-71
2023/10/25 01:41:16;;;;;;;9.65;5.20;;;;;;;7.72;100.00;100047.81;5008368;28;20072;-71
2023/10/25 01:43:43;;;;;;;9.07;5.13;;;;;;;7.72;100.00;100033.84;5010914;28;20042;-71
2023/10/25 01:46:10;;;;;;;9.93;5.28;;;;;;;7.71;100.00;100030.34;5007219;28;20050;-71
2023/10/25 01:48:38;;;;;;;11.15;5.10;;;;;;;7.71;100.00;100034.75;5009151;28;20047;-72
2023/10/25 01:51:08;;;;;;;14.13;5.25;;;;;;;7.70;100.00;100030.41;5007967;28;20406;-72
2023/10/25 01:53:36;;;;;;;8.77;5.70;;;;;;;7.70;100.00;100030.41;5020745;28;20046;-72
2023/10/25 01:56:04;;;;;;;11.98;5.50;;;;;;;7.69;100.00;100026.91;5020290;28;20128;-72
2023/10/25 01:58:31;;;;;;;10.88;5.38;;;;;;;7.70;100.00;100018.13;5012106;28;20081;-72
2023/10/25 02:01:05;;;;;;;12.70;5.43;;;;;;;7.71;100.00;100013.75;5022179;28;20115;-72
2023/10/25 02:03:32;;;;;;;9.40;5.25;;;;;;;7.69;100.00;100007.69;5006579;28;20042;-72
2023/10/25 02:05:59;;;;;;;8.48;5.28;;;;;;;7.69;100.00;100016.41;5017498;28;20132;-73
2023/10/25 02:08:26;;;;;;;12.48;5.00;;;;;;;7.70;100.00;100012.03;5005687;28;20074;-71
2023/10/25 02:10:53;;;;;;;7.32;5.47;;;;;;;7.69;100.00;100000.66;5014159;28;20092;-72
2023/10/25 02:13:21;;;;;;;11.57;5.38;;;;;;;7.69;100.00;99991.94;5006276;28;20045;-71
2023/10/25 02:15:48;;;;;;;10.40;5.57;;;;;;;7.69;100.00;99991.94;5010246;28;20124;-72
2023/10/25 02:18:15;;;;;;;9.95;5.63;;;;;;;7.69;100.00;99990.16;5033475;28;20069;-72
2023/10/25 02:20:42;;;;;;;10.13;5.25;;;;;;;7.70;100.00;99988.44;5041624;28;20080;-72
2023/10/25 02:23:09;;;;;;;12.82;5.90;;;;;;;7.68;100.00;99992.84;5033233;28;20115;-72
2023/10/25 02:25:36;;;;;;;11.80;6.05;;;;;;;7.66;100.00;99998.16;5005631;28;20728;-71
2023/10/25 02:28:04;;;;;;;14.18;5.68;;;;;;;7.65;100.00;99990.31;5009942;28;20506;-71
2023/10/25 02:30:31;;;;;;;10.52;5.75;;;;;;;7.66;100.00;99992.03;5007084;28;20045;-71
2023/10/25 02:32:58;;;;;;;12.25;6.13;;;;;;;7.65;100.00;99987.69;5015186;28;20093;-71
2023/10/25 02:35:25;;;;;;;11.82;6.55;;;;;;;7.65;100.00;99985.94;5027915;28;20053;-72
2023/10/25 02:37:53;;;;;;;11.18;6.07;;;;;;;7.62;100.00;99972.91;5006801;28;20379;-72
2023/10/25 02:40:20;;;;;;;10.70;6.22;;;;;;;7.61;100.00;99976.44;5006179;28;20103;-72
2023/10/25 02:42:47;;;;;;;11.18;5.85;;;;;;;7.59;100.00;99979.13;5009753;28;20456;-73
2023/10/25 02:45:14;;;;;;;11.88;5.97;;;;;;;7.57;100.00;99973.06;5044345;28;20493;-73
2023/10/25 02:47:41;;;;;;;11.82;6.32;;;;;;;7.56;100.00;99979.22;5023346;28;20130;-74
2023/10/25 02:50:09;;;;;;;9.45;6.03;;;;;;;7.56;100.00;99973.13;5006964;28;20128;-72
2023/10/25 02:52:36;;;;;;;15.82;6.05;;;;;;;7.55;100.00;99971.41;5037225;28;20147;-72
2023/10/25 02:55:04;;;;;;;11.90;6.32;;;;;;;7.53;100.00;99970.59;5005888;28;20037;-72
2023/10/25 02:57:31;;;;;;;13.80;6.38;;;;;;;7.51;100.00;99961.91;5035910;28;20076;-72
2023/10/25 02:59:58;;;;;;;9.65;5.35;;;;;;;7.51;100.00;99956.66;5037518;28;20073;-72
2023/10/25 03:02:25;;;;;;;12.23;6.43;;;;;;;7.51;100.00;99957.53;5006616;28;20076;-71
2023/10/25 03:04:52;;;;;;;11.23;6.57;;;;;;;7.51;100.00;99954.91;5013123;28;20041;-72
2023/10/25 03:07:19;;;;;;;8.82;6.05;;;;;;;7.50;100.00;99947.94;5021497;28;20080;-72
2023/10/25 03:09:46;;;;;;;12.60;6.45;;;;;;;7.51;100.00;99943.53;5018976;28;20056;-72
2023/10/25 03:12:13;;;;;;;11.60;6.40;;;;;;;7.52;100.00;99930.41;5024295;28;20156;-71
2023/10/25 03:14:40;;;;;;;7.82;5.55;;;;;;;7.53;100.00;99932.09;5033734;28;20041;-71
2023/10/25 03:17:07;;;;;;;12.32;5.85;;;;;;;7.54;100.00;99932.97;5026712;28;20389;-71
2023/10/25 03:19:34;;;;;;;11.73;5.43;;;;;;;7.53;100.00;99933.88;5031127;28;20069;-71
2023/10/25 03:22:03;;;;;;;9.95;5.57;;;;;;;7.53;100.00;99926.00;5023499;28;20107;-71
2023/10/25 03:24:30;;;;;;;9.55;5.30;;;;;;;7.55;100.00;99929.44;5043204;28;20050;-71
2023/10/25 03:26:58;;;;;;;10.02;5.57;;;;;;;7.54;100.00;99923.31;5019908;28;20057;-71
2023/10/25 03:29:25;;;;;;;13.82;5.30;;;;;;;7.54;100.00;99920.69;5011073;28;20524;-71
2023/10/25 03:31:57;;;;;;;11.57;5.55;;;;;;;7.56;100.00;99916.25;5026155;28;20057;-72
2023/10/25 03:34:25;;;;;;;8.45;5.13;;;;;;;7.56;100.00;99916.25;5027191;28;20651;-72
2023/10/25 03:36:52;;;;;;;11.98;5.95;;;;;;;7.56;100.00;99921.50;5058975;28;20060;-72
2023/10/25 03:39:19;;;;;;;11.60;6.05;;;;;;;7.57;100.00;99917.13;5008277;28;20133;-72
2023/10/25 03:41:46;;;;;;;12.02;6.35;;;;;;;7.57;100.00;99912.75;5025070;28;20044;-72
2023/10/25 03:44:13;;;;;;;10.07;6.68;;;;;;;7.58;100.00;99909.22;5020880;28;20100;-72
2023/10/25 03:46:40;;;;;;;13.38;6.38;;;;;;;7.56;100.00;99910.19;5023490;28;20073;-72
2023/10/25 03:49:07;;;;;;;11.10;6.07;;;;;;;7.56;100.00;99915.41;5015750;28;20057;-72
2023/10/25 03:51:37;;;;;;;12.98;6.07;;;;;;;7.54;100.00;99914.59;5028170;28;20497;-72
2023/10/25 03:54:04;;;;;;;8.45;4.93;;;;;;;7.52;100.00;99904.19;5023865;28;20048;-72
2023/10/25 03:56:32;;;;;;;14.25;5.35;;;;;;;7.52;100.00;99900.69;5009527;28;20052;-72
2023/10/25 03:58:59;;;;;;;10.43;5.30;;;;;;;7.51;100.00;99904.22;5009079;28;20073;-72
2023/10/25 04:01:26;;;;;;;11.18;4.68;;;;;;;7.55;100.00;99900.59;5019057;28;20044;-73
2023/10/25 04:03:53;;;;;;;11.15;5.00;;;;;;;7.58;100.00;99890.84;5025914;28;20474;-73
2023/10/25 04:06:20;;;;;;;7.88;4.63;;;;;;;7.62;100.00;99896.84;5024301;28;20041;-73
2023/10/25 04:08:47;;;;;;;11.02;4.90;;;;;;;7.66;100.00;99887.97;5009289;28;20125;-72
2023/10/25 04:11:14;;;;;;;10.38;4.30;;;;;;;7.71;100.00;99893.06;5008749;28;20581;-72
2023/10/25 04:13:41;;;;;;;13.50;5.18;;;;;;;7.75;100.00;99886.78;5023057;28;20510;-73
2023/10/25 04:16:11;;;;;;;9.73;3.90;;;;;;;7.75;100.00;99889.41;5053120;28;20045;-72
2023/10/25 04:18:38;;;;;;;8.13;4.50;;;;;;;7.79;100.00;99880.53;5021440;28;20052;-72
2023/10/25 04:21:11;;;;;;;7.50;4.10;;;;;;;7.83;100.00;99881.28;5022126;28;20409;-72
2023/10/25 04:23:39;;;;;;;9.63;4.22;;;;;;;7.87;100.00;99880.28;5022768;28;20153;-72
2023/10/25 04:26:11;;;;;;;8.20;3.95;;;;;;;7.92;100.00;99881.84;5027561;28;20606;-72
2023/10/25 04:28:42;;;;;;;6.40;3.53;;;;;;;7.95;100.00;99873.00;5024921;28;20568;-71
2023/10/25 04:31:11;;;;;;;7.80;3.33;;;;;;;7.99;100.00;99876.38;5013227;28;20067;-70
2023/10/25 04:33:41;;;;;;;7.32;3.83;;;;;;;8.00;100.00;99873.69;5024373;28;20045;-71
2023/10/25 04:36:08;;;;;;;6.95;3.47;;;;;;;8.03;100.00;99878.84;5025563;28;20143;-71
2023/10/25 04:38:36;;;;;;;5.00;3.60;;;;;;;8.05;100.00;99878.75;5025320;28;20061;-72
2023/10/25 04:41:03;;;;;;;8.20;3.13;;;;;;;8.06;100.00;99870.84;5026656;28;20363;-70
2023/10/25 04:43:33;;;;;;;8.82;3.08;;;;;;;8.08;100.00;99866.41;5020570;28;20053;-69
2023/10/25 04:46:00;;;;;;;10.77;4.07;;;;;;;8.13;100.00;99866.25;5024933;28;20045;-69
2023/10/25 04:48:27;;;;;;;11.43;3.35;;;;;;;8.23;100.00;99872.00;5023467;28;20042;-69
2023/10/25 04:50:55;;;;;;;10.13;3.90;;;;;;;8.31;100.00;99869.13;5020356;28;20061;-69
2023/10/25 04:53:22;;;;;;;7.30;3.38;;;;;;;8.37;100.00;99872.38;5026496;28;20076;-70
2023/10/25 04:55:49;;;;;;;7.65;3.13;;;;;;;8.45;100.00;99868.59;5024414;28;20045;-70
2023/10/25 04:58:18;;;;;;;7.93;2.92;;;;;;;8.48;100.00;99858.88;5020219;28;20136;-70
2023/10/25 05:00:46;;;;;;;8.52;3.42;;;;;;;8.52;100.00;99859.59;5023932;28;20045;-70
2023/10/25 05:03:13;;;;;;;6.38;3.13;;;;;;;8.53;100.00;99862.19;5023350;28;20041;-70
2023/10/25 05:05:46;;;;;;;9.05;2.88;;;;;;;8.60;100.00;99854.06;5016645;28;20094;-70
2023/10/25 05:08:16;;;;;;;7.13;3.08;;;;;;;8.65;100.00;99849.47;5021649;28;20037;-70
2023/10/25 05:10:52;;;;;;;9.20;2.60;;;;;;;8.68;100.00;99850.25;5026394;28;20041;-70
2023/10/25 05:13:19;;;;;;;8.98;3.00;;;;;;;8.69;100.00;99843.22;5022154;28;20045;-71
2023/10/25 05:15:46;;;;;;;7.82;3.00;;;;;;;8.69;100.00;99849.34;5042489;28;20489;-70
2023/10/25 05:18:14;;;;;;;7.40;2.47;;;;;;;8.70;100.00;99843.13;5024730;28;20049;-70
2023/10/25 05:20:41;;;;;;;8.20;2.92;;;;;;;8.77;100.00;99842.94;5023915;28;20127;-70
2023/10/25 05:23:10;;;;;;;9.18;2.65;;;;;;;8.78;100.00;99832.34;5023267;28;20081;-72
2023/10/25 05:25:38;;;;;;;7.28;2.80;;;;;;;8.77;100.00;99829.78;5025500;28;20049;-72
2023/10/25 05:28:06;;;;;;;7.07;2.67;;;;;;;8.72;100.00;99829.97;5023511;28;20057;-72
2023/10/25 05:30:33;;;;;;;8.18;2.55;;;;;;;8.68;100.00;99815.22;5020168;28;20042;-72
2023/10/25 05:33:06;;;;;;;5.90;2.90;;;;;;;8.61;100.00;99809.34;5022787;28;20056;-72
2023/10/25 05:35:34;;;;;;;6.00;3.10;;;;;;;8.55;100.00;99807.81;5020851;28;20041;-71
2023/10/25 05:38:03;;;;;;;8.90;3.35;;;;;;;8.52;100.00;99807.94;5022937;28;20050;-72
2023/10/25 05:40:30;;;;;;;5.75;2.97;;;;;;;8.48;100.00;99808.13;5025200;28;20728;-71
2023/10/25 05:43:02;;;;;;;8.30;3.05;;;;;;;8.45;100.00;99805.56;5018053;28;20164;-72
2023/10/25 05:45:30;;;;;;;7.97;3.35;;;;;;;8.43;100.00;99815.28;5020599;28;20087;-72
2023/10/25 05:47:57;;;;;;;7.82;3.40;;;;;;;8.40;100.00;99824.97;5035460;28;20557;-72
2023/10/25 05:50:25;;;;;;;6.30;3.40;;;;;;;8.37;100.00;99814.59;5020676;28;20034;-71
2023/10/25 05:52:52;;;;;;;9.05;3.60;;;;;;;8.34;100.00;99809.47;5017815;28;20531;-71
2023/10/25 05:55:20;;;;;;;9.90;3.70;;;;;;;8.32;100.00;99808.66;5015693;28;20647;-71
2023/10/25 05:57:47;;;;;;;6.38;3.47;;;;;;;8.30;100.00;99805.22;5019356;28;20041;-71
2023/10/25 06:00:15;;;;;;;8.57;3.60;;;;;;;8.27;100.00;99807.09;5040399;28;20038;-71
2023/10/25 06:02:44;;;;;;;6.60;3.67;;;;;;;8.28;100.00;99798.31;5023598;28;20038;-71
2023/10/25 06:05:13;;;;;;;7.72;3.80;;;;;;;8.28;100.00;99799.19;5017275;28;20116;-71
2023/10/25 06:07:42;;;;;;;8.05;3.42;;;;;;;8.28;100.00;99804.44;5025017;28;20061;-72
2023/10/25 06:10:10;;;;;;;7.93;3.72;;;;;;;8.30;100.00;99797.34;5046138;28;20049;-72
2023/10/25 06:12:40;;;;;;;7.70;3.85;;;;;;;8.32;100.00;99792.91;5034521;28;20513;-72
2023/10/25 06:15:09;;;;;;;8.27;3.60;;;;;;;8.34;100.00;99796.31;5025482;28;20044;-71
2023/10/25 06:17:37;;;;;;;9.15;3.92;;;;;;;8.34;100.00;99779.72;5044022;28;20098;-72
2023/10/25 06:20:05;;;;;;;8.80;4.10;;;;;;;8.35;100.00;99786.66;5023602;28;20046;-73
2023/10/25 06:22:33;;;;;;;9.23;4.15;;;;;;;8.35;100.00;99776.16;5056102;28;20479;-70
2023/10/25 06:25:00;;;;;;;6.20;4.05;;;;;;;8.34;100.00;99774.47;5021998;28;20069;-71
2023/10/25 06:27:27;;;;;;;7.53;4.13;;;;;;;8.34;100.00;99775.31;5023471;28;20045;-73
2023/10/25 06:29:54;;;;;;;11.02;4.18;;;;;;;8.34;100.00;99769.22;5023776;28;20120;-73
2023/10/25 06:32:21;;;;;;;8.45;3.90;;;;;;;8.35;100.00;99769.16;5024440;28;20132;-75
2023/10/25 06:34:48;;;;;;;6.65;4.00;;;;;;;8.35;100.00;99770.91;5017538;28;20046;-72
2023/10/25 06:37:15;;;;;;;10.60;4.60;;;;;;;8.38;100.00;99770.78;5037013;28;20549;-73
2023/10/25 06:39:43;;;;;;;7.50;3.90;;;;;;;8.38;100.00;99770.78;5024110;28;20404;-73
2023/10/25 06:42:11;;;;;;;6.03;4.10;;;;;;;8.40;100.00;99775.06;5022509;28;20041;-73
2023/10/25 06:44:40;;;;;;;7.60;4.03;;;;;;;8.40;100.00;99764.56;5049946;28;20033;-73
2023/10/25 06:47:09;;;;;;;9.45;3.97;;;;;;;8.45;100.00;99763.53;5001417;28;20060;-71
2023/10/25 06:49:37;;;;;;;8.15;4.20;;;;;;;8.46;100.00;99755.59;5005070;28;20116;-73
2023/10/25 06:52:05;;;;;;;6.78;3.60;;;;;;;8.49;100.00;99750.25;4993578;28;20057;-73
2023/10/25 06:54:32;;;;;;;8.82;3.78;;;;;;;8.53;100.00;99745.75;4993093;28;20049;-73
2023/10/25 06:57:00;;;;;;;7.72;3.78;;;;;;;8.60;100.00;99741.09;4991718;28;20067;-73
2023/10/25 06:59:27;;;;;;;10.90;4.15;;;;;;;8.62;100.00;99739.28;4991993;28;20132;-73
2023/10/25 07:02:25;;;;;;;6.05;3.88;;;;;;;8.65;100.00;99734.75;4991411;28;20096;-73
2023/10/25 07:05:11;;;;;;;6.95;4.15;;;;;;;8.69;100.00;99732.84;4985551;28;20360;-73
2023/10/25 07:07:40;;;;;;;4.90;3.50;;;;;;;8.70;100.00;99730.16;4991491;28;20084;-71
2023/10/25 07:10:08;;;;;;;8.00;3.92;;;;;;;8.73;100.00;99725.69;4990903;28;20049;-72
2023/10/25 07:12:36;;;;;;;7.85;3.17;;;;;;;8.74;100.00;99711.66;4991804;28;20116;-71
2023/10/25 07:15:03;;;;;;;8.35;3.58;;;;;;;8.79;100.00;99709.69;5017020;28;20160;-71
2023/10/25 07:17:30;;;;;;;8.00;3.30;;;;;;;8.78;100.00;99706.19;5041115;28;20069;-72
2023/10/25 07:20:00;;;;;;;9.35;3.80;;;;;;;8.79;100.00;99701.81;4998304;28;20099;-72
2023/10/25 07:22:28;;;;;;;6.88;3.70;;;;;;;8.79;100.00;99688.69;4990873;28;20046;-72
2023/10/25 07:24:55;;;;;;;8.80;3.80;;;;;;;8.80;100.00;99688.59;4991496;28;20054;-71
2023/10/25 07:27:23;;;;;;;6.00;3.63;;;;;;;8.81;100.00;99685.06;4992391;28;20049;-71
2023/10/25 07:29:51;;;;;;;7.85;4.15;;;;;;;8.81;100.00;99681.56;4989682;28;20109;-71
2023/10/25 07:32:18;;;;;;;10.63;4.45;;;;;;;8.81;100.00;99682.44;4998330;28;20046;-72
2023/10/25 07:34:45;;;;;;;10.30;5.20;;;;;;;8.81;100.00;99679.81;5007564;28;20057;-71
2023/10/25 07:37:12;;;;;;;8.88;5.07;;;;;;;8.82;100.00;99678.00;4991754;28;20133;-72
2023/10/25 07:39:40;;;;;;;11.60;5.10;;;;;;;8.82;100.00;99671.00;4990940;28;20049;-72
2023/10/25 07:42:07;;;;;;;9.55;4.95;;;;;;;8.83;100.00;99672.72;5015415;28;20048;-72
2023/10/25 07:44:35;;;;;;;11.40;4.90;;;;;;;8.81;100.00;99671.91;4990049;28;20549;-71
2023/10/25 07:47:03;;;;;;;12.88;5.38;;;;;;;8.84;100.00;99660.41;4994275;28;20494;-71
2023/10/25 07:49:36;;;;;;;8.38;4.97;;;;;;;8.85;100.00;99660.34;4991744;28;20124;-73
2023/10/25 07:52:04;;;;;;;7.90;4.72;;;;;;;8.86;100.00;99658.59;4990508;28;20132;-72
2023/10/25 07:54:31;;;;;;;9.50;4.40;;;;;;;8.91;100.00;99653.13;5006614;28;20076;-72
2023/10/25 07:56:58;;;;;;;10.45;4.57;;;;;;;8.94;100.00;99653.00;4989964;28;20540;-72
2023/10/25 07:59:28;;;;;;;12.30;4.88;;;;;;;8.96;100.00;99645.88;4991381;28;20049;-72
2023/10/25 08:01:57;;;;;;;9.70;4.95;;;;;;;8.98;100.00;99644.06;5008803;28;20128;-72
2023/10/25 08:04:25;;;;;;;8.55;4.25;;;;;;;9.02;100.00;99637.75;4988225;28;20179;-72
2023/10/25 08:06:53;;;;;;;7.88;4.45;;;;;;;9.04;100.00;99630.66;4989946;28;20132;-71
2023/10/25 08:09:20;;;;;;;6.95;4.20;;;;;;;9.07;100.00;99627.03;4991394;28;20111;-72
2023/10/25 08:11:47;;;;;;;6.07;4.22;;;;;;;9.10;100.00;99624.28;4988622;28;20048;-72
2023/10/25 08:14:14;;;;;;;7.22;4.22;;;;;;;9.13;100.00;99622.38;4990869;28;20049;-72
2023/10/25 08:16:42;;;;;;;8.68;4.72;;;;;;;9.16;100.00;99616.13;4990567;28;20889;-72
2023/10/25 08:19:09;;;;;;;6.78;4.28;;;;;;;9.21;100.00;99622.00;4991450;28;20050;-72
2023/10/25 08:21:37;;;;;;;7.53;4.53;;;;;;;9.27;100.00;99619.13;4991620;28;20058;-72
2023/10/25 08:24:05;;;;;;;6.97;4.20;;;;;;;9.32;100.00;99611.03;5009632;28;20120;-72
2023/10/25 08:26:39;;;;;;;10.60;4.50;;;;;;;9.36;100.00;99612.59;5008027;28;20052;-72
2023/10/25 08:29:08;;;;;;;8.43;4.88;;;;;;;9.38;100.00;99615.19;4997919;28;20050;-72
2023/10/25 08:31:35;;;;;;;8.48;4.60;;;;;;;9.40;100.00;99614.19;5054892;28;20508;-72
2023/10/25 08:34:02;;;;;;;9.20;4.82;;;;;;;9.44;100.00;99612.25;5026989;28;20033;-72
2023/10/25 08:36:32;;;;;;;8.05;3.97;;;;;;;9.49;100.00;99599.75;5026512;28;20418;-71
2023/10/25 08:38:59;;;;;;;6.60;4.32;;;;;;;9.52;100.00;99596.97;5021039;28;20041;-72
2023/10/25 08:41:27;;;;;;;5.22;3.83;;;;;;;9.55;100.00;99598.63;5027860;28;20045;-72
2023/10/25 08:43:55;;;;;;;9.10;4.00;;;;;;;9.56;100.00;99592.44;5021665;28;20058;-72
2023/10/25 08:46:24;;;;;;;8.52;4.40;;;;;;;9.59;100.00;99593.16;5016521;28;20092;-71
2023/10/25 08:48:53;;;;;;;9.77;4.30;;;;;;;9.66;100.00;99585.84;5008246;28;20033;-71
2023/10/25 08:51:20;;;;;;;5.95;4.07;;;;;;;9.72;100.00;99576.78;5019326;28;20066;-72
2023/10/25 08:53:51;;;;;;;8.35;4.30;;;;;;;9.75;100.00;99579.25;5026505;28;20085;-71
2023/10/25 08:56:18;;;;;;;7.75;4.07;;;;;;;9.75;100.00;99574.00;5037912;28;20045;-72
2023/10/25 08:58:46;;;;;;;6.82;4.22;;;;;;;9.78;100.00;99571.25;5022840;28;20449;-71
2023/10/25 09:01:13;;;;;;;7.45;4.20;;;;;;;9.81;100.00;99557.94;5014422;28;20421;-72
2023/10/25 09:03:42;;;;;;;8.07;4.38;;;;;;;9.88;100.00;99561.09;5024710;28;20049;-72
2023/10/25 09:06:21;;;;;;;7.72;4.45;;;;;;;9.89;100.00;99553.16;5022261;28;20520;-71
2023/10/25 09:09:07;;;;;;;9.13;4.18;;;;;;;9.95;100.00;99558.13;5016035;28;20053;-72
2023/10/25 09:11:43;;;;;;;12.32;4.70;;;;;;;9.98;100.00;99557.09;5005790;28;20049;-72
2023/10/25 09:14:13;;;;;;;10.13;4.57;;;;;;;10.05;100.00;99548.00;5007711;28;20537;-71
2023/10/25 09:16:43;;;;;;;11.23;4.60;;;;;;;10.07;100.00;99543.50;5037030;28;20390;-74
2023/10/25 09:19:11;;;;;;;6.70;4.10;;;;;;;10.10;100.00;99545.97;5025711;28;20068;-73
2023/10/25 09:21:38;;;;;;;10.05;4.50;;;;;;;10.14;100.00;99543.22;5014335;28;20560;-72
2023/10/25 09:24:09;;;;;;;7.43;3.78;;;;;;;10.16;100.00;99536.09;5017364;28;20061;-73
2023/10/25 09:26:41;;;;;;;9.48;4.15;;;;;;;10.15;100.00;99532.59;5008570;28;20497;-73
2023/10/25 09:29:12;;;;;;;7.97;3.90;;;;;;;10.16;100.00;99529.03;5023765;28;20621;-72
2023/10/25 09:31:39;;;;;;;8.30;4.50;;;;;;;10.12;100.00;99524.88;5030912;28;20052;-73
2023/10/25 09:34:10;;;;;;;7.05;4.30;;;;;;;10.09;100.00;99528.47;5021949;28;20025;-73
2023/10/25 09:36:37;;;;;;;6.68;4.03;;;;;;;10.09;100.00;99525.00;5038060;28;20030;-72
2023/10/25 09:39:05;;;;;;;7.18;4.15;;;;;;;10.06;100.00;99517.25;5022323;28;20048;-73
2023/10/25 09:41:40;;;;;;;7.05;4.20;;;;;;;10.07;100.00;99517.16;5017607;28;20476;-73
2023/10/25 09:44:19;;;;;;;8.98;3.83;;;;;;;10.07;100.00;99504.00;5021175;28;20050;-73
2023/10/25 09:46:47;;;;;;;8.63;4.15;;;;;;;10.09;100.00;99496.03;5017788;28;20040;-71
2023/10/25 09:49:17;;;;;;;6.53;3.60;;;;;;;10.13;100.00;99489.66;5023803;28;20048;-73
2023/10/25 09:52:05;;;;;;;7.65;3.90;;;;;;;10.17;100.00;99487.75;5021492;28;20534;-72
2023/10/25 09:54:42;;;;;;;7.57;3.72;;;;;;;10.19;100.00;99484.13;5019251;28;20037;-73
2023/10/25 09:57:14;;;;;;;8.52;3.67;;;;;;;10.23;100.00;99479.53;5003326;28;20045;-72
2023/10/25 09:59:44;;;;;;;8.80;3.00;;;;;;;10.28;100.00;99476.69;4992303;28;20349;-73
2023/10/25 10:02:29;;;;;;;7.00;3.13;;;;;;;10.26;100.00;99468.88;5003369;28;20049;-72
2023/10/25 10:05:09;;;;;;;6.10;3.30;;;;;;;10.29;100.00;99452.03;4999747;28;20046;-72
2023/10/25 10:08:15;;;;;;;6.93;2.78;;;;;;;10.35;100.00;99455.22;5013950;28;20053;-72
2023/10/25 10:11:09;;;;;;;6.07;2.90;;;;;;;10.35;100.00;99443.81;5002705;28;20085;-72
2023/10/25 10:13:36;;;;;;;6.72;3.00;;;;;;;10.39;100.00;99434.88;5018089;28;20681;-72
2023/10/25 10:16:09;;;;;;;5.90;2.92;;;;;;;10.42;100.00;99439.97;5006621;28;20121;-72
2023/10/25 10:18:45;;;;;;;6.60;2.77;;;;;;;10.41;100.00;99433.84;5023963;28;20520;-72
2023/10/25 10:21:15;;;;;;;5.50;2.70;;;;;;;10.43;100.00;99438.19;5017552;28;20520;-72
2023/10/25 10:23:50;;;;;;;9.30;2.70;;;;;;;10.44;100.00;99431.97;5015378;28;20133;-73
2023/10/25 10:26:47;;;;;;;7.80;2.90;;;;;;;10.43;100.00;99428.47;5007438;28;20525;-72
2023/10/25 10:29:33;;;;;;;7.38;3.00;;;;;;;10.43;100.00;99427.66;5023388;28;20286;-73
2023/10/25 10:32:06;;;;;;;7.47;2.78;;;;;;;10.42;100.00;99439.97;5022342;28;20041;-72
2023/10/25 10:34:57;;;;;;;8.00;2.80;;;;;;;10.40;100.00;99433.94;5027914;28;20081;-73
2023/10/25 10:37:31;;;;;;;6.47;2.42;;;;;;;10.35;100.00;99428.88;5006082;28;20049;-73
2023/10/25 10:39:59;;;;;;;5.90;2.55;;;;;;;10.27;100.00;99423.16;5004958;28;20049;-73
2023/10/25 10:42:36;;;;;;;6.45;2.72;;;;;;;10.17;100.00;99425.41;5010843;28;20513;-73
2023/10/25 10:45:07;;;;;;;7.28;2.78;;;;;;;10.12;100.00;99408.13;5013469;28;20096;-73
2023/10/25 10:47:49;;;;;;;6.97;2.80;;;;;;;10.05;100.00;99403.19;5022250;28;20049;-73
2023/10/25 10:50:19;;;;;;;8.13;2.60;;;;;;;10.01;100.00;99398.16;5041416;28;20056;-73
2023/10/25 10:52:50;;;;;;;7.90;2.60;;;;;;;9.99;100.00;99394.75;5045075;28;20072;-73
2023/10/25 10:55:22;;;;;;;8.32;3.00;;;;;;;9.97;100.00;99388.69;5009222;28;20052;-73
2023/10/25 10:57:51;;;;;;;8.02;3.10;;;;;;;9.95;100.00;99387.00;5007136;28;20038;-74
2023/10/25 11:00:34;;;;;;;;;;;;;;;9.93;100.00;99378.31;5020185;28;20076;-71
2023/10/25 11:03:03;;;;;;;6.72;2.75;;;;;;;9.93;100.00;99366.94;5020540;28;20031;-72
2023/10/25 11:05:37;;;;;;;6.30;3.08;;;;;;;9.92;100.00;99360.81;5017634;28;20760;-73
2023/10/25 11:08:13;;;;;;;8.75;2.67;;;;;;;9.92;100.00;99357.34;5032113;28;20049;-73
2023/10/25 11:10:41;;;;;;;3.78;2.45;;;;;;;9.90;100.00;99351.31;5026282;28;20046;-72
2023/10/25 11:13:10;;;;;;;5.95;2.47;;;;;;;9.90;100.00;99341.63;5036790;28;20581;-72
2023/10/25 11:15:38;;;;;;;8.85;2.85;;;;;;;9.89;100.00;99345.19;5008467;28;20411;-72
2023/10/25 11:18:08;;;;;;;7.72;2.42;;;;;;;9.92;100.00;99342.38;5019600;28;20136;-72
2023/10/25 11:20:36;;;;;;;5.22;2.58;;;;;;;9.92;100.00;99334.50;5024304;28;20041;-72
2023/10/25 11:23:04;;;;;;;4.85;2.70;;;;;;;9.91;100.00;99326.69;5010440;28;20077;-72
2023/10/25 11:25:31;;;;;;;5.65;2.80;;;;;;;9.93;100.00;99324.81;5021536;28;20049;-72
2023/10/25 11:27:59;;;;;;;7.18;2.78;;;;;;;9.93;100.00;99317.78;5018454;28;20056;-72
2023/10/25 11:30:26;;;;;;;5.72;2.58;;;;;;;9.96;100.00;99314.16;5045134;28;20064;-71
2023/10/25 11:32:54;;;;;;;6.75;2.72;;;;;;;10.00;100.00;99312.19;5015006;28;20124;-73
2023/10/25 11:35:23;;;;;;;6.07;3.20;;;;;;;10.03;100.00;99312.03;5022096;28;20096;-73
2023/10/25 11:37:52;;;;;;;11.52;3.15;;;;;;;10.04;100.00;99298.78;5003792;28;20077;-73